createdAt,value
2022-08-05T00:04:35.930Z,35.04
2022-08-05T00:11:30.305Z,34.56
2022-08-05T00:18:22.644Z,34.13
2022-08-05T00:25:12.691Z,33.67
2022-08-05T00:32:13.013Z,33.43
2022-08-05T00:39:00.877Z,33.13
2022-08-05T00:45:47.880Z,33.21
2022-08-05T00:52:35.960Z,33.04
2022-08-05T00:59:24.698Z,33.06
2022-08-05T01:06:15.469Z,32.99
2022-08-05T01:13:19.477Z,32.53
2022-08-05T01:20:30.285Z,32.57
2022-08-05T01:27:40.978Z,32.91
2022-08-05T01:34:51.642Z,32.98
2022-08-05T01:41:39.790Z,33.00
2022-08-05T01:48:30.900Z,33.12
2022-08-05T01:55:22.571Z,33.18
2022-08-05T02:02:10.666Z,33.20
2022-08-05T02:08:58.576Z,33.13
2022-08-05T02:15:52.745Z,32.97
2022-08-05T02:22:46.763Z,32.70
2022-08-05T02:29:59.094Z,32.99
2022-08-05T02:36:53.626Z,33.14
2022-08-05T02:44:02.533Z,33.33
2022-08-05T03:04:38.972Z,33.51
2022-08-05T03:11:55.827Z,33.44
2022-08-05T03:18:33.422Z,33.25
2022-08-05T03:26:03.816Z,33.23
2022-08-05T03:32:31.087Z,33.12
2022-08-05T03:39:20.049Z,33.00
2022-08-05T03:46:14.986Z,32.78
2022-08-05T03:55:07.105Z,32.12
2022-08-05T04:00:19.545Z,32.29
2022-08-05T04:07:09.742Z,32.11
2022-08-05T04:13:55.813Z,31.94
2022-08-05T04:20:44.679Z,31.83
2022-08-05T04:27:43.892Z,31.80
2022-08-05T04:34:43.014Z,31.73
2022-08-05T04:41:36.821Z,31.51
2022-08-05T04:48:27.672Z,31.64
2022-08-05T04:55:15.212Z,31.65
2022-08-05T05:02:35.240Z,31.22
2022-08-05T05:09:09.976Z,31.29
2022-08-05T05:16:05.844Z,31.33
2022-08-05T05:22:51.684Z,31.41
2022-08-05T05:29:40.887Z,30.59
2022-08-05T05:36:47.176Z,30.98
2022-08-05T05:43:58.556Z,30.61
2022-08-05T05:50:44.510Z,30.68
2022-08-05T05:57:51.895Z,29.95
2022-08-05T06:04:35.809Z,30.32
2022-08-05T06:11:24.246Z,30.27
2022-08-05T06:18:10.309Z,30.75
2022-08-05T06:24:59.572Z,30.89
2022-08-05T06:31:47.633Z,31.12
2022-08-05T06:38:37.287Z,31.22
2022-08-05T06:45:43.952Z,31.14
2022-08-05T06:52:36.578Z,31.20
2022-08-05T06:59:23.095Z,31.21
2022-08-05T07:06:15.181Z,31.10
2022-08-05T07:13:16.445Z,31.17
2022-08-05T07:20:38.859Z,30.72
2022-08-05T07:27:27.279Z,30.72
2022-08-05T07:34:32.719Z,30.61
2022-08-05T07:42:13.278Z,30.66
2022-08-05T07:49:01.711Z,30.70
2022-08-05T07:56:04.731Z,30.54
2022-08-05T08:03:15.017Z,29.98
2022-08-05T08:09:46.623Z,30.12
2022-08-05T08:16:50.821Z,29.94
2022-08-05T08:24:02.488Z,30.04
2022-08-05T08:30:47.984Z,30.14
2022-08-05T08:37:38.330Z,30.21
2022-08-05T08:45:19.741Z,29.60
2022-08-05T08:52:03.648Z,29.09
2022-08-05T08:58:53.340Z,29.22
2022-08-05T09:06:09.273Z,29.01
2022-08-05T09:12:44.596Z,28.81
2022-08-05T09:19:55.034Z,28.67
2022-08-05T09:26:45.484Z,28.75
2022-08-05T09:33:35.111Z,28.89
2022-08-05T09:40:41.112Z,29.08
2022-08-05T09:47:55.024Z,29.41
2022-08-05T09:54:42.005Z,29.95
2022-08-05T10:01:36.893Z,30.38
2022-08-05T10:08:36.182Z,30.74
2022-08-05T10:15:27.808Z,31.16
2022-08-05T10:22:30.265Z,31.52
2022-08-05T10:29:24.180Z,31.74
2022-08-05T10:36:26.903Z,31.75
2022-08-05T10:43:35.918Z,31.63
2022-08-05T10:50:36.639Z,31.56
2022-08-05T10:57:32.126Z,31.57
2022-08-05T11:04:26.146Z,31.70
2022-08-05T11:11:44.460Z,31.77
2022-08-05T11:18:38.611Z,31.82
2022-08-05T11:26:04.417Z,31.72
2022-08-05T11:32:49.962Z,31.75
2022-08-05T11:40:00.448Z,31.77
2022-08-05T11:47:10.225Z,31.77
2022-08-05T11:53:58.274Z,31.82
2022-08-05T12:00:47.057Z,31.88
2022-08-05T12:08:07.485Z,31.67
2022-08-05T12:14:47.480Z,31.89
2022-08-05T12:21:39.310Z,32.17
2022-08-05T12:28:38.629Z,32.30
2022-08-05T12:35:37.163Z,32.38
2022-08-05T12:42:25.989Z,32.41
2022-08-05T12:49:18.949Z,32.46
2022-08-05T12:56:04.759Z,32.24
2022-08-05T13:03:12.163Z,32.56
2022-08-05T13:10:04.323Z,32.87
2022-08-05T13:16:56.517Z,32.97
2022-08-05T13:23:50.687Z,32.98
2022-08-05T13:30:40.555Z,33.01
2022-08-05T13:37:34.288Z,33.03
2022-08-05T13:44:20.482Z,33.18
2022-08-05T13:51:16.168Z,33.27
2022-08-05T13:58:04.197Z,33.40
2022-08-05T14:05:03.793Z,33.53
2022-08-05T14:12:04.488Z,33.54
2022-08-05T14:18:57.397Z,33.47
2022-08-05T14:25:53.905Z,32.51
2022-08-05T14:32:42.765Z,33.24
2022-08-05T14:39:28.473Z,32.92
2022-08-05T14:46:14.671Z,32.38
2022-08-05T14:53:03.091Z,32.50
2022-08-05T14:59:51.741Z,32.35
2022-08-05T15:06:38.608Z,32.14
2022-08-05T15:13:45.993Z,31.88
2022-08-05T15:20:35.780Z,31.61
2022-08-05T15:27:21.296Z,31.35
2022-08-05T15:34:31.267Z,31.10
2022-08-05T15:41:23.005Z,30.90
2022-08-05T15:48:09.968Z,30.66
2022-08-05T15:55:03.680Z,30.50
2022-08-05T16:01:52.500Z,30.02
2022-08-05T16:08:39.915Z,29.84
2022-08-05T16:15:32.685Z,30.18
2022-08-05T16:22:27.401Z,30.10
2022-08-05T16:29:13.412Z,30.07
2022-08-05T16:36:09.760Z,29.91
2022-08-05T16:42:55.286Z,29.87
2022-08-05T16:49:41.922Z,29.92
2022-08-05T16:56:33.789Z,29.41
2022-08-05T17:03:20.105Z,29.92
2022-08-05T17:10:06.484Z,29.92
2022-08-05T17:16:54.969Z,29.79
2022-08-05T17:24:03.533Z,29.44
2022-08-05T17:30:52.060Z,29.70
2022-08-05T17:37:45.503Z,29.22
2022-08-05T17:44:33.848Z,29.63
2022-08-05T17:51:21.514Z,29.58
2022-08-05T17:58:12.495Z,28.84
2022-08-05T18:04:58.576Z,29.36
2022-08-05T18:11:44.751Z,29.29
2022-08-05T18:18:39.873Z,29.19
2022-08-05T18:25:33.127Z,29.13
2022-08-05T18:32:18.878Z,29.06
2022-08-05T18:39:22.259Z,28.91
2022-08-05T18:46:14.499Z,29.03
2022-08-05T18:52:59.929Z,28.92
2022-08-05T19:00:02.425Z,28.85
2022-08-05T19:06:48.960Z,28.83
2022-08-05T19:13:36.066Z,28.83
2022-08-05T19:20:25.406Z,28.79
2022-08-05T19:27:11.568Z,28.73
2022-08-05T19:33:58.956Z,28.71
2022-08-05T19:40:47.388Z,28.52
2022-08-05T19:47:33.441Z,27.99
2022-08-05T19:54:27.094Z,28.33
2022-08-05T20:01:28.406Z,28.17
2022-08-05T20:08:15.229Z,27.63
2022-08-05T20:15:00.806Z,28.02
2022-08-05T20:21:49.640Z,28.07
2022-08-05T20:28:36.447Z,28.02
2022-08-05T20:35:22.328Z,27.97
2022-08-05T20:42:11.753Z,27.92
2022-08-05T20:48:57.461Z,27.88
2022-08-05T20:55:56.532Z,27.31
2022-08-05T21:02:56.049Z,27.61
2022-08-05T21:09:53.648Z,27.59
2022-08-05T21:16:42.741Z,27.58
2022-08-05T21:23:37.101Z,27.56
2022-08-05T21:30:24.405Z,27.56
2022-08-05T21:37:11.536Z,27.51
2022-08-05T21:44:03.682Z,27.47
2022-08-05T21:50:54.121Z,27.48
2022-08-05T21:57:42.790Z,27.48
2022-08-05T22:04:31.204Z,27.55
2022-08-05T22:11:17.717Z,27.57
2022-08-05T22:18:03.682Z,27.52
2022-08-05T22:25:04.341Z,27.48
2022-08-05T22:32:03.651Z,27.49
2022-08-05T22:38:49.654Z,27.50
2022-08-05T22:45:37.731Z,27.45
2022-08-05T22:52:32.180Z,27.38
2022-08-05T22:59:45.931Z,27.42
2022-08-05T23:06:27.921Z,27.15
2022-08-05T23:13:14.421Z,27.08
2022-08-05T23:20:03.213Z,26.96
2022-08-05T23:26:51.581Z,26.53
2022-08-05T23:34:04.226Z,26.55
2022-08-05T23:40:42.711Z,26.56
2022-08-05T23:47:47.503Z,26.76
2022-08-05T23:54:38.377Z,26.67
